»·PEaware :: N969DA KPDX-KSLE

N969DA :: KPDX-KSLE

FLIGHT INFORMATION

Flight Status: Arrived
Operator: Privately registered:
United States
More flights under this callsign
Pilot: Anonymous 20880 (20880)
Aircraft: Unknown
(DA62)
More flights by this aircraft type
Origin: KPDX Portland Intl
United States
Destination: KSLE McNary
United States
More flights between these airports :: More routes between these airports
Route: UGB
File this flight plan on PilotEdge
Remarks:
Altitude:
(Current/Filed)
5,000ft
Speed:
(Current/Filed)
140kts
Departed: 09-Jan-19 07:05 PM
Arrived: 09-Jan-19 07:35 PM
Distance/Time
Traveled:
44nm/0:30
Distance/Time
To Go:
Arrived

Flight Plot

Page will automatically refresh every two minutes.

Flight plan parsing failed; only flown route is shown


Map Options




Map Legend


Flown Route
Filed Route
Departure Airport
Arrival Airport
Navaid (VOR, NDB)
Fix

Horizontal Profiles

Position Reports

Time Latitude Longitude Heading Altitude Ground
Speed
09-Jan-19 18:37 45.587326 -122.582818 209 33ft 0kts
09-Jan-19 18:38 45.587326 -122.582818 209 33ft 0kts
09-Jan-19 18:39 45.587326 -122.582818 209 33ft 0kts
09-Jan-19 18:40 45.587326 -122.582818 209 33ft 0kts
09-Jan-19 18:41 45.587326 -122.582818 209 33ft 0kts
09-Jan-19 18:42 45.587326 -122.582818 209 33ft 0kts
09-Jan-19 18:43 45.587326 -122.582818 209 33ft 0kts
09-Jan-19 18:44 45.587326 -122.582818 209 33ft 0kts
09-Jan-19 18:45 45.587326 -122.582818 209 33ft 0kts
09-Jan-19 18:46 45.587326 -122.582818 209 33ft 0kts
09-Jan-19 18:47 45.587326 -122.582818 209 33ft 0kts
09-Jan-19 18:48 45.587326 -122.582818 209 33ft 0kts
09-Jan-19 18:49 45.587326 -122.582818 209 33ft 0kts
09-Jan-19 18:49 45.587326 -122.582818 209 33ft 0kts
09-Jan-19 18:51 45.587326 -122.582818 209 33ft 0kts
09-Jan-19 18:52 45.587326 -122.582818 209 33ft 0kts
09-Jan-19 18:52 45.587326 -122.582818 209 33ft 0kts
09-Jan-19 18:53 45.587326 -122.582818 209 33ft 0kts
09-Jan-19 18:55 45.587326 -122.582818 209 33ft 0kts
09-Jan-19 18:55 45.587326 -122.582818 209 33ft 0kts
09-Jan-19 18:56 45.587310 -122.582831 209 33ft 3kts
09-Jan-19 18:58 45.588877 -122.585906 357 33ft 2kts
09-Jan-19 18:58 45.590493 -122.589935 299 33ft 25kts
09-Jan-19 18:59 45.592797 -122.595841 304 33ft 17kts
09-Jan-19 19:00 45.593874 -122.596215 34 33ft 4kts
09-Jan-19 19:01 45.593878 -122.596212 34 33ft 0kts
09-Jan-19 19:02 45.593878 -122.596212 34 33ft 0kts
09-Jan-19 19:03 45.593878 -122.596212 34 33ft 0kts
09-Jan-19 19:04 45.594091 -122.593799 117 33ft 47kts
09-Jan-19 19:05 45.583301 -122.570185 120 1010ft 83kts
09-Jan-19 19:06 45.568048 -122.540735 127 2191ft 95kts
09-Jan-19 19:07 45.553822 -122.508915 115 3368ft 97kts
09-Jan-19 19:08 45.530888 -122.507127 224 4286ft 141kts
09-Jan-19 19:09 45.513956 -122.560016 234 4977ft 149kts
09-Jan-19 19:10 45.496309 -122.616275 235 4998ft 160kts
09-Jan-19 19:11 45.478095 -122.674226 234 4991ft 161kts
09-Jan-19 19:12 45.460082 -122.730307 234 4997ft 153kts
09-Jan-19 19:13 45.442603 -122.784427 234 4992ft 151kts
09-Jan-19 19:14 45.424020 -122.836216 228 4987ft 146kts
09-Jan-19 19:15 45.402070 -122.884242 228 4985ft 145kts
09-Jan-19 19:16 45.379993 -122.931690 228 4988ft 142kts
09-Jan-19 19:17 45.358079 -122.976389 207 4983ft 132kts
09-Jan-19 19:18 45.325106 -122.994008 201 4993ft 129kts
09-Jan-19 19:19 45.297479 -123.012834 200 4107ft 104kts
09-Jan-19 19:20 45.267767 -123.024649 191 3153ft 127kts
09-Jan-19 19:21 45.236438 -123.037016 192 3086ft 108kts
09-Jan-19 19:22 45.213194 -123.061775 221 3088ft 109kts
09-Jan-19 19:23 45.191614 -123.092881 209 3089ft 114kts
09-Jan-19 19:24 45.161342 -123.111942 197 3082ft 122kts
09-Jan-19 19:25 45.128797 -123.127360 196 3079ft 124kts
09-Jan-19 19:26 45.096017 -123.142278 189 3078ft 123kts
09-Jan-19 19:27 45.063326 -123.129289 155 3085ft 125kts
09-Jan-19 19:28 45.034323 -123.104882 151 2586ft 109kts
09-Jan-19 19:29 45.009065 -123.082570 150 2192ft 104kts
09-Jan-19 19:30 44.983468 -123.063717 152 2003ft 113kts
09-Jan-19 19:31 44.956627 -123.040319 150 1117ft 108kts
09-Jan-19 19:32 44.933910 -123.020927 158 676ft 87kts
09-Jan-19 19:33 44.915190 -123.005860 154 205ft 63kts
09-Jan-19 19:34 44.910733 -123.002253 130 203ft 7kts
09-Jan-19 19:35 44.911798 -123.000306 314 206ft 0kts
09-Jan-19 19:36 44.911798 -123.000306 314 206ft 0kts
09-Jan-19 19:37 44.911798 -123.000306 314 206ft 0kts
09-Jan-19 19:38 44.911798 -123.000306 314 206ft 0kts
09-Jan-19 19:39 44.911798 -123.000306 314 206ft 0kts

Navigation Log

Ident Type
Flight plan parsing failed, navigation log unavailable